This is the latest recevied weather packets stored in our database for station/object AI5BL. If no packets are shown the sender has not sent any weather packets the latest 10 day(s).
| Time | Temp. | Humidity | Pressure | Rain* | Wind** | Luminosity | Snow |
|---|---|---|---|---|---|---|---|
| 1778179194 | 23.89° C | 73% | 1016.6 hPa | 0 mm | - | 363 W/m² | - |
| 1778178890 | 23.89° C | 75% | 1016.5 hPa | 0 mm | - | 312 W/m² | - |
| 1778178588 | 23.89° C | 76% | 1016.6 hPa | 0 mm | - | 388 W/m² | - |
| 1778178284 | 23.89° C | 75% | 1016.6 hPa | 0 mm | - | 360 W/m² | - |
| 1778177980 | 23.89° C | 74% | 1016.8 hPa | 0 mm | - | 594 W/m² | - |
| 1778177676 | 24.44° C | 74% | 1016.6 hPa | 0 mm | - | 620 W/m² | - |
| 1778177373 | 24.44° C | 74% | 1016.7 hPa | 0 mm | - | 1046 W/m² | - |
| 1778177070 | 24.44° C | 75% | 1016.8 hPa | 0 mm | - | 1044 W/m² | - |
| 1778176765 | 23.89° C | 76% | 1017 hPa | 0 mm | - | 947 W/m² | - |
| 1778176463 | 23.33° C | 79% | 1017.1 hPa | 0 mm | - | 521 W/m² | - |
| 1778176160 | 23.33° C | 76% | 1017 hPa | 0 mm | - | 321 W/m² | - |
| 1778175857 | 22.78° C | 77% | 1017.1 hPa | 0 mm | - | 999 W/m² | - |
| 1778175555 | 22.78° C | 79% | 1017.1 hPa | 0 mm | - | 615 W/m² | - |
| 1778175252 | 22.22° C | 82% | 1017.1 hPa | 0 mm | - | 344 W/m² | - |
| 1778174948 | 22.22° C | 81% | 1017.4 hPa | 0 mm | - | 305 W/m² | - |
| 1778174645 | 22.22° C | 81% | 1017.3 hPa | 0 mm | - | 274 W/m² | - |
| 1778174341 | 22.22° C | 81% | 1017.4 hPa | 0 mm | - | 347 W/m² | - |
| 1778174038 | 22.78° C | 80% | 1017.5 hPa | 0 mm | - | 324 W/m² | - |
| 1778173735 | 22.78° C | 80% | 1017.5 hPa | 0 mm | - | 265 W/m² | - |
| 1778173431 | 22.22° C | 79% | 1017.5 hPa | 0 mm | - | 282 W/m² | - |
| 1778173127 | 22.78° C | 78% | 1017.5 hPa | 0 mm | - | 397 W/m² | - |
| 1778172823 | 22.22° C | 79% | 1017.5 hPa | 0 mm | - | 635 W/m² | - |
| 1778172520 | 22.78° C | 77% | 1017.4 hPa | 0 mm | - | 399 W/m² | - |
| 1778172217 | 22.22° C | 78% | 1017.2 hPa | 0 mm | - | 375 W/m² | - |
| 1778171914 | 21.67° C | 86% | 1017.4 hPa | 0 mm | - | 952 W/m² | - |
* Rain latest hour (hover to see other rain measurements)
** Current wind speed in m/s (hover to see current wind gust speed)